Time;durP1;ratioP1;P1;durP2;ratioP2;P2;SDS_P1;SDS_P2;PMS_P1;PMS_P2;Temp;Humidity;BMP_temperature;BMP_pressure;BME280_temperature;BME280_humidity;BME280_pressure;Samples;Min_cycle;Max_cycle;Signal;HPM_P1;HPM_P2
2024/01/10 05:22:32;;;;;;;7.10;4.32;;;;;;;-3.64;67.43;101169.09;5069111;28;20234;-38
2024/01/10 05:24:58;;;;;;;7.50;3.95;;;;;;;-3.59;67.22;101177.59;5069025;28;20036;-31
2024/01/10 05:27:23;;;;;;;6.88;4.07;;;;;;;-3.64;68.16;101176.91;5068855;28;20090;-31
2024/01/10 05:29:48;;;;;;;10.75;4.28;;;;;;;-3.68;67.74;101170.13;5069070;28;20124;-35
2024/01/10 05:32:14;;;;;;;9.52;5.32;;;;;;;-3.62;68.99;101162.06;5068730;28;20171;-32
2024/01/10 05:34:39;;;;;;;5.90;3.85;;;;;;;-3.74;68.56;101162.53;5068897;28;20128;-33
2024/01/10 05:37:04;;;;;;;8.75;4.90;;;;;;;-3.69;69.07;101158.00;5068864;28;20044;-35
2024/01/10 05:39:30;;;;;;;8.95;4.35;;;;;;;-3.66;69.43;101170.91;5068918;28;20044;-33
2024/01/10 05:41:55;;;;;;;8.27;4.32;;;;;;;-3.89;69.61;101169.19;5067485;28;20037;-34
2024/01/10 05:44:21;;;;;;;7.38;4.47;;;;;;;-3.80;70.80;101167.16;5068704;28;20411;-35
2024/01/10 05:46:47;;;;;;;10.10;5.45;;;;;;;-3.86;70.69;101165.63;5068468;28;20052;-34
2024/01/10 05:49:13;;;;;;;8.30;5.20;;;;;;;-3.98;71.56;101169.53;5068698;28;20033;-37
2024/01/10 05:51:38;;;;;;;11.30;5.85;;;;;;;-3.89;71.22;101163.16;5068715;28;20071;-32
2024/01/10 05:54:04;;;;;;;10.82;5.55;;;;;;;-3.99;71.72;101167.84;5068621;28;20045;-34
2024/01/10 05:56:29;;;;;;;6.93;4.72;;;;;;;-4.15;72.44;101164.97;5068044;28;20464;-35
2024/01/10 05:58:55;;;;;;;8.15;4.55;;;;;;;-4.24;73.58;101170.53;5068446;28;20066;-32
2024/01/10 06:01:20;;;;;;;7.20;4.78;;;;;;;-4.00;73.48;101171.34;5066662;28;20044;-32
2024/01/10 06:03:45;;;;;;;9.38;5.80;;;;;;;-4.09;73.79;101169.13;5069619;28;20083;-32
2024/01/10 06:06:11;;;;;;;9.95;4.80;;;;;;;-4.24;74.70;101173.16;5074531;28;20040;-39
2024/01/10 06:08:36;;;;;;;8.55;5.03;;;;;;;-4.35;75.47;101164.88;5063009;28;20409;-33
2024/01/10 06:11:08;;;;;;;9.05;5.90;;;;;;;-4.31;76.39;101163.00;5068337;28;20126;-39
2024/01/10 06:13:34;;;;;;;5.35;4.35;;;;;;;-4.42;77.37;101171.22;5074287;28;20063;-32
2024/01/10 06:16:00;;;;;;;9.05;5.75;;;;;;;-4.43;77.96;101172.13;5065411;28;20120;-36
2024/01/10 06:18:25;;;;;;;11.65;5.68;;;;;;;-4.41;78.73;101167.69;5067629;28;20113;-38
2024/01/10 06:20:50;;;;;;;11.52;6.00;;;;;;;-4.34;78.37;101168.31;5067654;28;20538;-36
2024/01/10 06:23:17;;;;;;;10.35;6.25;;;;;;;-4.39;78.15;101171.94;5067912;28;20041;-34
2024/01/10 06:25:42;;;;;;;10.38;5.88;;;;;;;-4.38;78.73;101167.56;5067740;28;20044;-32
2024/01/10 06:28:07;;;;;;;7.85;4.88;;;;;;;-4.51;80.36;101167.16;5067607;28;20043;-36
2024/01/10 06:30:35;;;;;;;11.80;6.50;;;;;;;-4.53;80.22;101173.34;5067641;28;20477;-34
2024/01/10 06:33:00;;;;;;;10.20;6.15;;;;;;;-4.55;79.82;101170.81;5059517;28;20044;-32
2024/01/10 06:35:26;;;;;;;9.07;4.38;;;;;;;-4.57;79.66;101171.75;5054542;28;20037;-37
2024/01/10 06:37:51;;;;;;;6.28;4.18;;;;;;;-4.57;79.63;101167.38;5054161;28;20143;-33
2024/01/10 06:40:16;;;;;;;6.18;4.75;;;;;;;-4.59;79.08;101169.19;5054252;28;20048;-32
2024/01/10 06:42:42;;;;;;;9.55;5.68;;;;;;;-4.61;79.38;101168.41;5054193;28;20041;-33
2024/01/10 06:45:08;;;;;;;9.95;5.15;;;;;;;-4.61;79.53;101172.78;5054334;28;20041;-32
2024/01/10 06:47:34;;;;;;;8.32;4.47;;;;;;;-4.56;79.35;101174.31;5053974;28;20044;-37
2024/01/10 06:49:59;;;;;;;10.35;6.28;;;;;;;-4.49;78.98;101174.94;5054199;28;20045;-33
2024/01/10 06:52:25;;;;;;;9.70;4.93;;;;;;;-4.44;77.66;101186.00;5053988;28;20052;-33
2024/01/10 06:54:50;;;;;;;11.50;5.80;;;;;;;-4.43;79.30;101185.13;5054135;28;20039;-35
2024/01/10 06:57:15;;;;;;;9.18;5.70;;;;;;;-4.57;79.18;101179.53;5053822;28;20040;-33
2024/01/10 06:59:41;;;;;;;11.50;5.50;;;;;;;-4.61;79.74;101180.56;5053959;28;20154;-32
2024/01/10 07:02:06;;;;;;;10.52;5.13;;;;;;;-4.49;78.92;101191.38;5053876;28;20040;-34
2024/01/10 07:04:32;;;;;;;11.23;5.63;;;;;;;-4.42;78.98;101186.81;5053709;28;20033;-37
2024/01/10 07:06:57;;;;;;;7.72;5.15;;;;;;;-4.43;78.92;101192.94;5053503;28;20467;-32
2024/01/10 07:09:23;;;;;;;14.98;5.30;;;;;;;-4.47;78.40;101199.13;5053751;28;20037;-32
2024/01/10 07:11:49;;;;;;;12.00;5.80;;;;;;;-4.31;78.49;101207.22;5053528;28;20473;-37
2024/01/10 07:14:17;;;;;;;10.10;5.38;;;;;;;-4.43;79.05;101200.72;5052671;28;20041;-34
2024/01/10 07:16:45;;;;;;;8.32;5.03;;;;;;;-4.30;77.38;101202.00;5051914;28;20485;-35
2024/01/10 07:19:14;;;;;;;8.52;5.82;;;;;;;-4.50;78.27;101200.09;5053432;28;20107;-34
2024/01/10 07:21:43;;;;;;;8.77;5.18;;;;;;;-4.35;78.73;101209.09;5053465;28;20507;-34
2024/01/10 07:24:09;;;;;;;11.68;6.20;;;;;;;-4.37;78.29;101203.97;5053505;28;20048;-33
2024/01/10 07:26:36;;;;;;;9.57;5.88;;;;;;;-4.20;77.50;101207.69;5053315;28;20043;-32
2024/01/10 07:29:02;;;;;;;9.65;5.53;;;;;;;-4.22;77.57;101214.72;5053587;28;20098;-33
2024/01/10 07:31:29;;;;;;;11.98;6.13;;;;;;;-4.14;76.61;101218.72;5053566;28;20020;-32
2024/01/10 07:33:58;;;;;;;8.85;5.03;;;;;;;-4.18;76.78;101227.53;5053408;28;20036;-38
2024/01/10 07:36:26;;;;;;;9.45;5.88;;;;;;;-4.13;76.67;101227.38;5053015;28;20037;-34
2024/01/10 07:38:52;;;;;;;10.98;6.25;;;;;;;-4.13;77.07;101224.78;5053323;28;20044;-33
2024/01/10 07:41:18;;;;;;;9.68;5.25;;;;;;;-4.28;77.10;101220.97;5053203;28;20064;-32
2024/01/10 07:43:43;;;;;;;8.13;5.38;;;;;;;-4.31;78.19;101231.47;5051250;28;20079;-32
2024/01/10 07:46:09;;;;;;;11.10;5.80;;;;;;;-4.13;77.17;101237.78;5052601;28;20025;-36
2024/01/10 07:48:35;;;;;;;7.22;5.28;;;;;;;-4.07;77.02;101228.91;5053092;28;20522;-35
2024/01/10 07:51:01;;;;;;;8.93;5.10;;;;;;;-4.04;77.43;101239.19;5053133;28;20443;-36
2024/01/10 07:53:26;;;;;;;10.73;5.82;;;;;;;-3.59;74.87;101241.81;5053018;28;20037;-33
2024/01/10 07:55:52;;;;;;;8.40;5.43;;;;;;;-2.64;70.77;101228.41;5053037;28;20495;-33
2024/01/10 07:58:17;;;;;;;11.07;5.78;;;;;;;-2.42;67.83;101240.53;5052584;28;20041;-34
2024/01/10 08:00:43;;;;;;;11.45;5.07;;;;;;;-1.91;63.68;101233.00;5052859;28;20045;-37
2024/01/10 08:03:10;;;;;;;7.70;4.75;;;;;;;-2.14;63.71;101225.38;5052694;28;20064;-32
2024/01/10 08:05:35;;;;;;;10.23;6.25;;;;;;;-1.92;63.48;101230.47;5052741;28;20036;-37
2024/01/10 08:08:01;;;;;;;9.65;6.10;;;;;;;-1.18;61.67;101230.47;5052557;28;20044;-33
2024/01/10 08:10:27;;;;;;;9.85;5.57;;;;;;;-0.50;60.31;101227.97;5052634;28;20461;-34
2024/01/10 08:12:52;;;;;;;11.77;6.28;;;;;;;-0.32;58.40;101230.50;5046363;28;20033;-35
2024/01/10 08:15:19;;;;;;;11.02;6.03;;;;;;;1.21;54.61;101229.91;5042885;28;20493;-33
2024/01/10 08:17:45;;;;;;;10.88;5.45;;;;;;;1.30;51.52;101231.13;5042122;28;20037;-35
2024/01/10 08:20:10;;;;;;;9.60;5.38;;;;;;;1.93;51.73;101237.88;5039622;28;20045;-39
2024/01/10 08:22:37;;;;;;;9.90;6.15;;;;;;;2.16;51.43;101239.97;5042949;28;20069;-34
2024/01/10 08:25:03;;;;;;;11.65;5.85;;;;;;;2.62;48.65;101237.06;5041955;28;20045;-35
2024/01/10 08:27:28;;;;;;;9.65;5.70;;;;;;;2.37;48.83;101235.97;5040939;28;20040;-33
2024/01/10 08:29:53;;;;;;;11.00;6.03;;;;;;;3.85;46.30;101229.72;5027739;28;20151;-37
2024/01/10 08:32:21;;;;;;;9.00;5.53;;;;;;;3.69;44.68;101238.69;5041362;28;20117;-34
2024/01/10 08:34:47;;;;;;;;;;;;;;;2.11;49.04;101244.66;5041755;28;20041;-34
2024/01/10 08:37:13;;;;;;;10.25;5.53;;;;;;;2.13;48.70;101245.38;5042551;28;19915;-35
2024/01/10 08:39:38;;;;;;;10.13;6.22;;;;;;;3.35;47.33;101248.03;5041170;28;20029;-38
2024/01/10 08:42:03;;;;;;;7.68;5.80;;;;;;;2.12;49.67;101236.66;5041527;28;20041;-35
2024/01/10 08:44:29;;;;;;;8.45;6.03;;;;;;;2.04;49.07;101241.56;5042553;28;20045;-35
2024/01/10 08:46:54;;;;;;;8.63;5.47;;;;;;;1.09;49.37;101243.72;5040371;28;20095;-38
2024/01/10 08:49:20;;;;;;;10.00;6.13;;;;;;;2.42;50.26;101227.81;5042131;28;20033;-41
2024/01/10 08:51:46;;;;;;;10.95;6.40;;;;;;;1.75;50.48;101232.81;5041967;28;20106;-37
2024/01/10 08:54:19;;;;;;;9.55;6.75;;;;;;;3.01;47.89;101227.53;5032340;28;20045;-37
2024/01/10 08:56:45;;;;;;;13.27;6.38;;;;;;;0.81;50.64;101239.22;5031678;28;20037;-36
2024/01/10 08:59:13;;;;;;;8.35;6.15;;;;;;;1.51;50.61;101236.91;5031924;28;20092;-38
2024/01/10 09:01:41;;;;;;;9.27;6.40;;;;;;;2.57;48.29;101239.13;5032005;28;20033;-39
2024/01/10 09:04:07;;;;;;;7.80;5.47;;;;;;;1.50;49.33;101240.44;5031775;28;20037;-36
2024/01/10 09:06:33;;;;;;;9.30;6.18;;;;;;;2.68;49.18;101234.03;5031672;28;20559;-34
2024/01/10 09:08:59;;;;;;;12.38;7.60;;;;;;;1.98;48.97;101236.66;5034365;28;20091;-34
2024/01/10 09:11:24;;;;;;;12.50;7.13;;;;;;;1.56;50.41;101245.34;5041121;28;20041;-35
2024/01/10 09:13:51;;;;;;;10.85;7.00;;;;;;;3.24;47.51;101245.25;5040919;28;20029;-42
2024/01/10 09:16:18;;;;;;;8.95;6.22;;;;;;;2.33;47.71;101242.34;5027051;28;20496;-35
2024/01/10 09:18:44;;;;;;;9.93;6.40;;;;;;;2.85;47.22;101249.56;5041053;28;20053;-33
2024/01/10 09:21:10;;;;;;;9.98;6.40;;;;;;;2.39;49.88;101252.50;5040733;28;20456;-34
2024/01/10 09:23:36;;;;;;;13.18;7.65;;;;;;;2.79;47.34;101249.97;5042111;28;20037;-37
2024/01/10 09:26:03;;;;;;;8.77;6.65;;;;;;;2.90;46.99;101250.13;5007351;28;20377;-36
2024/01/10 09:28:29;;;;;;;10.13;6.75;;;;;;;2.53;48.46;101248.16;5009052;28;20095;-36
2024/01/10 09:30:54;;;;;;;8.68;5.80;;;;;;;1.70;49.60;101255.91;5039826;28;20041;-37
2024/01/10 09:33:22;;;;;;;8.52;6.35;;;;;;;3.24;47.58;101254.00;5041064;28;20488;-36
2024/01/10 09:35:47;;;;;;;10.45;7.40;;;;;;;1.94;50.46;101257.97;5041199;28;20033;-37
2024/01/10 09:38:13;;;;;;;11.65;7.13;;;;;;;1.27;50.89;101258.41;5040052;28;20404;-36
2024/01/10 09:40:38;;;;;;;8.10;6.00;;;;;;;0.69;51.76;101266.97;5042225;28;20060;-35
2024/01/10 09:43:05;;;;;;;8.18;6.05;;;;;;;1.16;51.13;101258.19;5040733;28;20497;-33
2024/01/10 09:45:34;;;;;;;10.75;6.75;;;;;;;2.07;50.32;101256.28;5040506;28;20032;-36
2024/01/10 09:48:01;;;;;;;11.82;6.85;;;;;;;1.98;48.94;101262.94;5041523;28;20049;-36
2024/01/10 09:50:26;;;;;;;9.27;6.63;;;;;;;1.51;50.12;101258.78;5039898;28;20091;-35
2024/01/10 09:52:55;;;;;;;10.77;6.68;;;;;;;1.32;51.01;101252.91;5041279;28;20033;-36
2024/01/10 09:55:23;;;;;;;11.38;8.15;;;;;;;1.45;52.08;101246.00;5040773;28;20103;-38
2024/01/10 09:57:49;;;;;;;10.63;7.30;;;;;;;2.52;50.96;101247.31;5039927;28;20037;-35
2024/01/10 10:00:16;;;;;;;10.85;7.15;;;;;;;1.66;51.77;101251.75;5041052;28;20091;-34
2024/01/10 10:02:42;;;;;;;12.47;7.70;;;;;;;3.06;49.45;101257.00;5041890;28;20040;-41
2024/01/10 10:05:09;;;;;;;9.13;6.13;;;;;;;2.96;48.24;101262.88;5039854;28;20068;-36
2024/01/10 10:07:47;;;;;;;10.10;6.88;;;;;;;0.96;51.64;101267.19;5044942;28;20032;-36
2024/01/10 10:10:14;;;;;;;9.63;7.22;;;;;;;1.36;51.23;101264.91;5055083;28;20420;-34
2024/01/10 10:12:44;;;;;;;9.60;6.70;;;;;;;1.60;50.82;101263.47;5055064;28;20448;-36
2024/01/10 10:15:14;;;;;;;11.70;7.75;;;;;;;0.81;51.78;101266.28;5055001;28;20041;-34
2024/01/10 10:17:46;;;;;;;10.50;7.25;;;;;;;1.79;50.25;101259.75;5054422;28;20505;-39
2024/01/10 10:20:13;;;;;;;11.73;7.40;;;;;;;1.14;52.51;101252.19;5054427;28;20033;-39
2024/01/10 10:22:39;;;;;;;10.75;7.13;;;;;;;1.37;51.35;101250.88;5054746;28;20021;-34
2024/01/10 10:25:05;;;;;;;9.98;7.30;;;;;;;0.61;53.17;101258.69;5054688;28;20062;-33
2024/01/10 10:27:30;;;;;;;10.68;6.50;;;;;;;0.75;52.42;101260.53;5054473;28;20047;-33
2024/01/10 10:29:56;;;;;;;11.55;6.90;;;;;;;1.34;51.55;101251.03;5054699;28;20400;-36
2024/01/10 10:32:21;;;;;;;9.57;7.28;;;;;;;0.61;52.49;101260.47;5054355;28;20047;-35
2024/01/10 10:34:47;;;;;;;9.98;7.05;;;;;;;1.84;50.84;101249.81;5054586;28;20060;-34
2024/01/10 10:37:12;;;;;;;10.10;6.95;;;;;;;1.19;51.04;101254.56;5054204;28;20033;-34
2024/01/10 10:39:38;;;;;;;10.40;7.10;;;;;;;1.65;51.48;101250.06;5054523;28;20407;-38
2024/01/10 10:42:04;;;;;;;10.35;7.20;;;;;;;1.60;50.20;101252.13;5053174;28;20044;-33
2024/01/10 10:44:35;;;;;;;11.00;7.15;;;;;;;1.70;50.92;101258.53;5054377;28;20044;-38
2024/01/10 10:47:05;;;;;;;7.97;5.32;;;;;;;1.72;50.26;101251.38;5054129;28;20057;-34
2024/01/10 10:49:31;;;;;;;9.20;7.05;;;;;;;2.11;49.02;101257.78;5054310;28;20044;-35
2024/01/10 10:52:00;;;;;;;9.35;6.80;;;;;;;1.02;51.79;101255.50;5053037;28;20076;-34
2024/01/10 10:54:30;;;;;;;10.13;6.45;;;;;;;2.68;49.10;101250.66;5054196;28;20025;-33
2024/01/10 10:56:57;;;;;;;9.13;6.93;;;;;;;2.66;48.68;101246.44;5054044;28;20041;-34
2024/01/10 10:59:26;;;;;;;9.93;7.10;;;;;;;2.80;47.92;101250.78;5054070;28;20090;-36
2024/01/10 11:01:53;;;;;;;9.02;6.68;;;;;;;3.35;48.58;101236.66;5054163;28;20108;-36
2024/01/10 11:04:20;;;;;;;9.68;7.20;;;;;;;2.90;49.40;101251.91;5054005;28;20117;-34
2024/01/10 11:06:46;;;;;;;10.30;7.57;;;;;;;3.06;48.35;101247.31;5053908;28;20403;-38
2024/01/10 11:09:14;;;;;;;10.82;7.57;;;;;;;2.40;48.89;101253.34;5054014;28;20041;-36
2024/01/10 11:12:00;;;;;;;11.02;7.80;;;;;;;2.44;48.97;101255.69;5053790;28;20041;-36
2024/01/10 11:14:45;;;;;;;10.52;7.18;;;;;;;2.34;48.86;101243.19;5053891;28;20040;-39
2024/01/10 11:17:47;;;;;;;11.43;8.00;;;;;;;1.90;49.87;101252.91;5053424;28;20025;-33
2024/01/10 11:20:19;;;;;;;11.18;7.20;;;;;;;2.64;49.20;101243.91;5046508;28;20135;-34
2024/01/10 11:22:53;;;;;;;9.10;5.70;;;;;;;1.63;50.01;101251.94;5053739;28;20624;-37
2024/01/10 11:25:19;;;;;;;10.10;6.93;;;;;;;2.63;49.33;101250.09;5053618;28;20124;-35
2024/01/10 11:27:47;;;;;;;11.10;8.07;;;;;;;2.97;48.80;101248.78;5053264;28;20128;-35
2024/01/10 11:30:12;;;;;;;14.30;7.63;;;;;;;3.31;46.95;101251.81;5053588;28;20052;-37
2024/01/10 11:32:38;;;;;;;12.32;7.95;;;;;;;3.12;47.71;101257.44;5053340;28;20082;-33
2024/01/10 11:35:21;;;;;;;12.27;7.88;;;;;;;2.50;48.57;101254.47;5053426;28;20044;-35
2024/01/10 11:37:49;;;;;;;10.23;5.93;;;;;;;2.22;49.32;101242.22;5053142;28;20041;-37
2024/01/10 11:40:15;;;;;;;11.00;7.93;;;;;;;2.18;49.84;101238.91;5053104;28;20033;-38
2024/01/10 11:42:45;;;;;;;11.77;7.60;;;;;;;2.77;48.68;101238.69;5053273;28;20036;-36
2024/01/10 11:45:29;;;;;;;11.48;7.95;;;;;;;3.54;48.24;101234.47;5053191;28;20041;-34
2024/01/10 11:47:56;;;;;;;11.57;7.03;;;;;;;2.94;48.08;101232.34;5052975;28;20080;-35
2024/01/10 11:50:23;;;;;;;13.68;7.20;;;;;;;2.23;49.58;101241.25;5047806;28;20044;-33
2024/01/10 11:52:53;;;;;;;9.05;5.90;;;;;;;2.11;49.72;101236.75;5041132;28;20481;-37
2024/01/10 11:55:46;;;;;;;12.27;7.50;;;;;;;2.94;48.39;101242.88;5042019;28;20124;-37
2024/01/10 11:58:11;;;;;;;10.60;7.82;;;;;;;2.89;47.90;101235.28;5043565;28;20033;-45
2024/01/10 12:00:37;;;;;;;14.50;8.02;;;;;;;3.93;47.28;101228.25;5041821;28;20037;-44
2024/01/10 12:03:03;;;;;;;7.10;5.22;;;;;;;1.45;50.49;101232.88;5042497;28;20127;-43
2024/01/10 12:05:29;;;;;;;9.52;7.05;;;;;;;1.88;50.35;101231.13;5043339;28;20037;-44
2024/01/10 12:07:55;;;;;;;11.50;7.63;;;;;;;2.11;49.98;101229.72;5041188;28;20045;-44
2024/01/10 12:10:21;;;;;;;10.38;7.32;;;;;;;2.81;49.29;101227.03;5042656;28;20052;-46
2024/01/10 12:12:46;;;;;;;13.20;8.40;;;;;;;2.84;48.65;101225.97;5042968;28;20590;-45
2024/01/10 12:15:12;;;;;;;12.93;7.82;;;;;;;2.14;50.96;101231.28;5041268;28;20091;-44
2024/01/10 12:17:37;;;;;;;13.70;8.10;;;;;;;1.73;50.68;101221.56;5037531;28;20048;-42
2024/01/10 12:20:03;;;;;;;14.75;8.80;;;;;;;2.32;50.50;101227.53;5032826;28;20543;-45
2024/01/10 12:22:31;;;;;;;13.15;8.23;;;;;;;2.51;49.77;101219.31;5032660;28;20036;-44
2024/01/10 12:25:04;;;;;;;13.50;8.38;;;;;;;2.42;49.54;101217.28;5032609;28;20103;-45
2024/01/10 12:27:30;;;;;;;13.02;7.55;;;;;;;2.15;50.31;101223.34;5032313;28;20041;-44
2024/01/10 12:29:56;;;;;;;8.30;5.20;;;;;;;2.09;49.94;101225.50;5032213;28;20037;-44
2024/01/10 12:32:22;;;;;;;13.98;8.63;;;;;;;2.48;49.72;101218.66;5032425;28;20049;-44
2024/01/10 12:34:48;;;;;;;11.57;8.60;;;;;;;2.25;49.51;101213.06;5037904;28;20033;-44
2024/01/10 12:37:13;;;;;;;9.63;6.45;;;;;;;1.51;50.91;101215.91;5041626;28;20389;-45
2024/01/10 12:39:39;;;;;;;13.95;8.40;;;;;;;2.63;49.99;101209.81;5041157;28;20093;-44
2024/01/10 12:42:04;;;;;;;11.95;8.27;;;;;;;2.06;50.63;101213.38;5042959;28;20108;-44
2024/01/10 12:44:31;;;;;;;10.88;7.85;;;;;;;2.08;50.07;101210.66;5041438;28;20048;-44
2024/01/10 12:46:57;;;;;;;12.43;8.13;;;;;;;1.84;50.88;101203.34;5041066;28;20496;-45
2024/01/10 12:49:22;;;;;;;11.90;7.57;;;;;;;2.29;50.10;101205.84;5042728;28;20111;-45
2024/01/10 12:51:48;;;;;;;9.90;7.72;;;;;;;1.90;50.64;101202.13;5041043;28;20029;-43
2024/01/10 12:54:15;;;;;;;11.52;7.63;;;;;;;1.96;51.16;101206.19;5040393;28;20491;-42
2024/01/10 12:56:40;;;;;;;11.18;7.55;;;;;;;1.76;51.03;101210.88;5042396;28;20071;-44
2024/01/10 12:59:05;;;;;;;12.40;8.20;;;;;;;1.96;50.70;101208.81;5040627;28;20493;-41
2024/01/10 13:01:31;;;;;;;13.40;8.52;;;;;;;2.15;50.87;101201.44;5042778;28;20052;-45
2024/01/10 13:03:56;;;;;;;9.48;6.95;;;;;;;1.68;51.58;101205.22;5042196;28;20036;-44
2024/01/10 13:06:22;;;;;;;13.65;8.50;;;;;;;1.65;51.55;101204.56;5041481;28;20053;-42
2024/01/10 13:08:48;;;;;;;13.63;8.75;;;;;;;2.21;50.57;101206.31;5049001;28;20039;-45
2024/01/10 13:11:14;;;;;;;11.48;7.82;;;;;;;2.06;51.64;101202.88;5051781;28;20047;-43
2024/01/10 13:13:42;;;;;;;13.48;8.85;;;;;;;1.73;52.27;101200.53;5051970;28;20037;-41
2024/01/10 13:16:10;;;;;;;14.18;9.30;;;;;;;1.63;51.57;101208.13;5051520;28;20407;-42
2024/01/10 13:18:39;;;;;;;12.45;7.53;;;;;;;1.66;51.37;101209.72;5051379;28;20024;-45
2024/01/10 13:21:04;;;;;;;15.43;8.32;;;;;;;1.30;53.03;101208.38;5051495;28;20036;-41
2024/01/10 13:23:30;;;;;;;8.93;5.55;;;;;;;1.32;52.40;101208.28;5051634;28;20756;-41
2024/01/10 13:25:55;;;;;;;13.50;7.72;;;;;;;1.20;53.23;101201.97;5051751;28;20082;-44
2024/01/10 13:28:21;;;;;;;11.57;7.97;;;;;;;1.51;53.82;101192.28;5051454;28;20041;-43
2024/01/10 13:30:46;;;;;;;11.43;7.72;;;;;;;1.21;53.25;101202.81;5051506;28;20045;-41
2024/01/10 13:33:12;;;;;;;8.38;5.95;;;;;;;1.03;53.85;101199.47;5051789;28;20162;-44
2024/01/10 13:35:38;;;;;;;11.52;8.25;;;;;;;1.64;53.10;101203.72;5051724;28;20037;-44
2024/01/10 13:38:04;;;;;;;13.73;7.78;;;;;;;1.34;53.26;101209.88;5051414;28;20037;-44
2024/01/10 13:40:31;;;;;;;10.30;7.07;;;;;;;1.43;53.08;101203.22;5051733;28;20048;-45
2024/01/10 13:42:57;;;;;;;13.75;7.78;;;;;;;1.36;53.20;101205.34;5052999;28;20065;-44
2024/01/10 13:45:22;;;;;;;12.32;8.10;;;;;;;1.61;53.86;101215.25;5054287;28;20087;-41
2024/01/10 13:47:49;;;;;;;11.63;7.68;;;;;;;1.64;53.32;101219.50;5054159;28;20556;-44
2024/01/10 13:50:14;;;;;;;12.38;7.38;;;;;;;1.50;52.91;101215.06;5055426;28;20556;-45
2024/01/10 13:52:40;;;;;;;12.02;8.07;;;;;;;1.69;53.46;101220.03;5055396;28;20103;-45
2024/01/10 13:55:06;;;;;;;11.18;7.60;;;;;;;1.55;53.55;101217.41;5055327;28;20059;-45
2024/01/10 13:57:32;;;;;;;12.60;7.65;;;;;;;1.51;53.33;101216.75;5054973;28;20029;-43
2024/01/10 13:59:58;;;;;;;11.63;7.57;;;;;;;1.80;54.11;101217.59;5055345;28;20041;-45
2024/01/10 14:02:24;;;;;;;7.22;5.15;;;;;;;1.13;54.06;101221.63;5055203;28;20507;-44
2024/01/10 14:04:50;;;;;;;13.27;8.52;;;;;;;1.11;54.58;101226.13;5055178;28;20033;-43
2024/01/10 14:07:16;;;;;;;11.50;7.43;;;;;;;1.55;54.17;101222.66;5053635;28;20041;-44
2024/01/10 14:09:41;;;;;;;12.07;7.25;;;;;;;1.48;54.86;101231.84;5053867;28;20036;-43
2024/01/10 14:12:06;;;;;;;11.30;6.78;;;;;;;1.35;54.09;101226.47;5055100;28;20072;-44
2024/01/10 14:14:32;;;;;;;11.02;7.18;;;;;;;1.24;54.89;101215.72;5055050;28;20112;-45
2024/01/10 14:16:57;;;;;;;11.02;7.25;;;;;;;1.21;54.81;101223.81;5054636;28;20485;-44
2024/01/10 14:19:23;;;;;;;12.00;7.10;;;;;;;1.09;55.35;101214.84;5055034;28;20095;-41
2024/01/10 14:21:48;;;;;;;11.48;7.50;;;;;;;1.09;55.86;101213.06;5054765;28;20060;-44
2024/01/10 14:24:14;;;;;;;12.32;8.18;;;;;;;0.99;55.70;101214.56;5054867;28;20135;-44
2024/01/10 14:26:39;;;;;;;13.30;7.20;;;;;;;0.81;55.74;101216.44;5054494;28;20049;-41
2024/01/10 14:29:05;;;;;;;14.50;7.93;;;;;;;0.98;56.01;101209.41;5054647;28;20127;-44
2024/01/10 14:31:30;;;;;;;12.32;7.97;;;;;;;0.93;56.14;101216.69;5054603;28;20037;-44
2024/01/10 14:33:57;;;;;;;11.57;6.85;;;;;;;0.84;56.14;101214.56;5054653;28;20075;-44
2024/01/10 14:36:22;;;;;;;10.38;7.20;;;;;;;0.90;56.24;101222.94;5054386;28;20056;-45
2024/01/10 14:38:47;;;;;;;9.57;6.82;;;;;;;0.86;56.23;101220.59;5053166;28;20531;-42
2024/01/10 14:41:13;;;;;;;11.88;8.35;;;;;;;1.04;56.38;101220.41;5054575;28;20230;-45
2024/01/10 14:43:38;;;;;;;13.18;7.45;;;;;;;0.95;56.33;101218.28;5054537;28;20053;-45
2024/01/10 14:46:07;;;;;;;11.48;7.45;;;;;;;0.87;56.73;101224.91;5054160;28;20063;-45
2024/01/10 14:48:33;;;;;;;10.77;6.80;;;;;;;0.83;56.92;101229.47;5054196;28;20139;-45
2024/01/10 14:51:00;;;;;;;12.98;7.93;;;;;;;0.81;56.83;101232.19;5054205;28;20124;-44
2024/01/10 14:53:26;;;;;;;13.07;8.75;;;;;;;0.78;57.71;101224.50;5053870;28;20445;-43
2024/01/10 14:55:52;;;;;;;24.48;13.70;;;;;;;0.79;56.97;101226.19;5054210;28;20068;-40
2024/01/10 14:58:18;;;;;;;20.50;12.43;;;;;;;0.67;57.56;101219.00;5054059;28;20041;-45
2024/01/10 15:00:44;;;;;;;10.70;7.38;;;;;;;0.66;57.92;101219.09;5054152;28;20044;-42
2024/01/10 15:03:09;;;;;;;12.45;8.80;;;;;;;0.52;58.64;101219.84;5054052;28;20037;-45
2024/01/10 15:05:36;;;;;;;11.90;7.97;;;;;;;0.49;58.44;101225.28;5054060;28;20124;-45
2024/01/10 15:08:01;;;;;;;15.65;9.68;;;;;;;0.48;58.80;101241.94;5053894;28;20109;-45
2024/01/10 15:10:27;;;;;;;16.95;9.75;;;;;;;0.40;59.09;101241.53;5053952;28;20105;-45
2024/01/10 15:12:53;;;;;;;10.95;7.72;;;;;;;0.45;59.64;101242.09;5053883;28;20040;-45
2024/01/10 15:15:18;;;;;;;27.85;14.35;;;;;;;0.40;59.47;101241.53;5054010;28;20082;-45
2024/01/10 15:17:44;;;;;;;13.73;9.20;;;;;;;0.30;59.03;101243.78;5047904;28;20041;-44
2024/01/10 15:20:10;;;;;;;9.45;6.93;;;;;;;0.32;59.84;101244.53;5044382;28;20052;-45
2024/01/10 15:22:38;;;;;;;12.48;8.88;;;;;;;0.25;60.16;101248.41;5042905;28;20040;-45
2024/01/10 15:25:05;;;;;;;18.00;11.10;;;;;;;0.26;60.31;101255.34;5043004;28;20087;-44
2024/01/10 15:27:30;;;;;;;20.88;12.68;;;;;;;0.22;60.55;101259.09;5044019;28;20033;-45
2024/01/10 15:29:55;;;;;;;15.23;10.23;;;;;;;0.20;60.71;101267.03;5042760;28;20378;-44
2024/01/10 15:32:21;;;;;;;16.70;11.00;;;;;;;0.14;60.61;101267.38;5043027;28;20048;-45
2024/01/10 15:34:46;;;;;;;26.70;19.67;;;;;;;0.10;61.40;101265.81;5043936;28;20021;-45
2024/01/10 15:37:12;;;;;;;20.17;16.13;;;;;;;-0.05;62.02;101266.63;5041837;28;20045;-46
2024/01/10 15:39:40;;;;;;;23.27;14.43;;;;;;;-0.11;62.45;101262.56;5043823;28;20048;-43
2024/01/10 15:42:06;;;;;;;;;;;;;;;-0.09;62.48;101265.94;5027317;28;20397;-43
2024/01/10 15:44:31;;;;;;;11.93;8.07;;;;;;;-0.19;63.30;101271.75;5041093;28;20007;-43
2024/01/10 15:46:57;;;;;;;18.33;12.38;;;;;;;-0.22;63.80;101264.03;5043574;28;20037;-39
2024/01/10 15:49:23;;;;;;;18.58;12.23;;;;;;;-0.30;63.80;101267.91;5042580;28;20044;-43
2024/01/10 15:51:49;;;;;;;12.68;7.88;;;;;;;-0.30;63.69;101273.16;5041023;28;20527;-42
2024/01/10 15:54:15;;;;;;;13.98;10.27;;;;;;;-0.31;65.23;101266.22;5042954;28;20025;-41
2024/01/10 15:56:41;;;;;;;18.45;9.15;;;;;;;-0.45;65.45;101268.69;5040963;28;20041;-41
2024/01/10 15:59:07;;;;;;;14.38;9.23;;;;;;;-0.54;64.95;101266.53;5042149;28;20082;-39
2024/01/10 16:01:35;;;;;;;11.85;8.40;;;;;;;-0.59;65.56;101269.41;5043713;28;20071;-41
2024/01/10 16:04:02;;;;;;;12.55;7.78;;;;;;;-0.58;65.93;101267.63;5043499;28;20036;-43
2024/01/10 16:06:27;;;;;;;12.52;8.70;;;;;;;-0.62;66.70;101266.06;5031917;28;20044;-44
2024/01/10 16:08:53;;;;;;;11.70;7.88;;;;;;;-0.53;66.08;101273.47;5032914;28;20501;-43
2024/01/10 16:11:18;;;;;;;13.55;7.78;;;;;;;-0.69;66.78;101275.16;5032811;28;20409;-44
2024/01/10 16:13:44;;;;;;;13.35;7.78;;;;;;;-0.73;66.54;101277.06;5032830;28;20041;-43
2024/01/10 16:16:09;;;;;;;12.77;7.63;;;;;;;-0.81;67.18;101276.59;5032503;28;20033;-42
2024/01/10 16:18:37;;;;;;;13.57;9.50;;;;;;;-0.74;67.18;101282.38;5032720;28;20548;-44
2024/01/10 16:21:06;;;;;;;14.70;8.55;;;;;;;-0.77;67.03;101283.41;5032131;28;20030;-39
2024/01/10 16:23:31;;;;;;;13.38;7.85;;;;;;;-0.80;67.69;101282.69;5032647;28;20045;-41
2024/01/10 16:25:57;;;;;;;13.27;8.13;;;;;;;-0.72;67.30;101276.13;5032600;28;20034;-41
2024/01/10 16:28:23;;;;;;;12.68;8.75;;;;;;;-0.83;68.01;101284.53;5032275;28;20044;-44
2024/01/10 16:30:49;;;;;;;13.20;8.50;;;;;;;-0.82;67.35;101281.00;5032565;28;20626;-44
2024/01/10 16:33:15;;;;;;;11.75;7.30;;;;;;;-0.87;68.04;101271.69;5032744;28;20041;-45
2024/01/10 16:35:40;;;;;;;12.45;7.97;;;;;;;-0.85;68.23;101269.81;5032486;28;20041;-44
2024/01/10 16:38:06;;;;;;;13.30;8.73;;;;;;;-0.88;68.12;101270.84;5032272;28;20033;-44
2024/01/10 16:40:31;;;;;;;14.73;8.65;;;;;;;-0.80;68.58;101272.22;5031141;28;20432;-42
2024/01/10 16:42:57;;;;;;;18.95;11.20;;;;;;;-0.94;67.97;101276.34;5032328;28;20042;-44